MMTG

Angel Albino Corzo International Airport

Tuxtla Gutiérrez, Mexico
TAF MMTG 160449Z 1606/1706 33010KT P6SM SCT080 BKN300 FM161600 33012KT P6SM SCT030 BKN080 FM170200 30005KT P6SM BKN100
Issued Valid From Valid To
Dec-16 @ 04:49 UTC
(an hour ago)
Dec-16 @ 06:00 UTC
(in 7 minutes)
Dec-17 @ 06:00 UTC
(in 24 hours)
Dec-16 @ 06:00 to Dec-16 @ 16:00
TAF MMTG 160449Z 1606/1706 33010KT P6SM SCT080 BKN300
Wind Visibility Clouds
330° at 10 knots Greater than 6 miles
  • Scattered at 8,000' AGL
  • Broken at 30,000' AGL
From Dec-16 @ 16:00 to Dec-17 @ 02:00
FM161600 33012KT P6SM SCT030 BKN080
Wind Visibility Clouds
330° at 12 knots Greater than 6 miles
  • Scattered at 3,000' AGL
  • Broken at 8,000' AGL
From Dec-17 @ 02:00 to Dec-17 @ 06:00
FM170200 30005KT P6SM BKN100
Wind Visibility Clouds
300° at 5 knots Greater than 6 miles
  • Broken at 10,000' AGL
TAF MMTG 160449Z 1606/1706 33010KT P6SM SCT080 BKN300 FM161600 33012KT P6SM SCT030 BKN080 FM170200 30005KT P6SM BKN100
Issued Dec-16 @ 04:49 UTC
(an hour ago)
Valid From Dec-16 @ 06:00 UTC
(in 7 minutes)
Valid To Dec-17 @ 06:00 UTC
(in 24 hours)
Dec-16 @ 06:00 - Dec-16 @ 16:00
Wind Visibility
330° at 10 knots Greater than 6 miles
Clouds
  • Scattered at 8,000' AGL
  • Broken at 30,000' AGL
From Dec-16 @ 16:00 - Dec-17 @ 02:00
Wind Visibility
330° at 12 knots Greater than 6 miles
Clouds
  • Scattered at 3,000' AGL
  • Broken at 8,000' AGL
From Dec-17 @ 02:00 - Dec-17 @ 06:00
Wind Visibility
300° at 5 knots Greater than 6 miles
Clouds
  • Broken at 10,000' AGL